sensor_id;sensor_type;location;lat;lon;timestamp;P1;durP1;ratioP1;P2;durP2;ratioP2
23336;SDS011;11840;45.414;12.372;2023-05-29T05:20:31;7.07;;;4.40;;
23336;SDS011;11840;45.414;12.372;2023-05-29T05:22:58;6.95;;;4.50;;
23336;SDS011;11840;45.414;12.372;2023-05-29T05:25:25;7.85;;;4.30;;
23336;SDS011;11840;45.414;12.372;2023-05-29T05:27:51;7.60;;;4.88;;
23336;SDS011;11840;45.414;12.372;2023-05-29T05:30:18;8.05;;;5.10;;
23336;SDS011;11840;45.414;12.372;2023-05-29T05:32:43;8.05;;;4.85;;
23336;SDS011;11840;45.414;12.372;2023-05-29T05:35:09;7.00;;;4.57;;
23336;SDS011;11840;45.414;12.372;2023-05-29T05:37:36;7.15;;;4.47;;
23336;SDS011;11840;45.414;12.372;2023-05-29T05:40:02;7.00;;;4.72;;
23336;SDS011;11840;45.414;12.372;2023-05-29T05:42:30;9.63;;;4.40;;
23336;SDS011;11840;45.414;12.372;2023-05-29T05:45:01;8.75;;;4.32;;
23336;SDS011;11840;45.414;12.372;2023-05-29T05:47:28;9.18;;;4.13;;
23336;SDS011;11840;45.414;12.372;2023-05-29T05:49:53;8.85;;;4.80;;
23336;SDS011;11840;45.414;12.372;2023-05-29T05:52:19;6.60;;;4.35;;
23336;SDS011;11840;45.414;12.372;2023-05-29T05:54:45;6.32;;;4.55;;
23336;SDS011;11840;45.414;12.372;2023-05-29T05:57:12;5.88;;;4.10;;
23336;SDS011;11840;45.414;12.372;2023-05-29T05:59:38;6.78;;;4.50;;
23336;SDS011;11840;45.414;12.372;2023-05-29T06:02:05;6.30;;;4.57;;
23336;SDS011;11840;45.414;12.372;2023-05-29T06:04:31;8.52;;;4.57;;
23336;SDS011;11840;45.414;12.372;2023-05-29T06:06:57;9.05;;;4.80;;
23336;SDS011;11840;45.414;12.372;2023-05-29T06:09:23;7.60;;;4.00;;
23336;SDS011;11840;45.414;12.372;2023-05-29T06:11:50;8.80;;;4.38;;
23336;SDS011;11840;45.414;12.372;2023-05-29T06:14:15;6.63;;;4.30;;
23336;SDS011;11840;45.414;12.372;2023-05-29T06:16:42;6.40;;;4.03;;
23336;SDS011;11840;45.414;12.372;2023-05-29T06:19:08;6.10;;;4.45;;
23336;SDS011;11840;45.414;12.372;2023-05-29T06:21:46;7.53;;;4.55;;
23336;SDS011;11840;45.414;12.372;2023-05-29T06:24:12;9.82;;;4.60;;
23336;SDS011;11840;45.414;12.372;2023-05-29T06:26:38;7.38;;;4.80;;
23336;SDS011;11840;45.414;12.372;2023-05-29T06:29:06;6.40;;;4.22;;
23336;SDS011;11840;45.414;12.372;2023-05-29T06:31:32;8.30;;;4.15;;
23336;SDS011;11840;45.414;12.372;2023-05-29T06:33:59;5.82;;;4.43;;
23336;SDS011;11840;45.414;12.372;2023-05-29T06:36:26;7.07;;;4.38;;
23336;SDS011;11840;45.414;12.372;2023-05-29T06:38:51;7.55;;;4.38;;
23336;SDS011;11840;45.414;12.372;2023-05-29T06:41:17;8.30;;;4.60;;
23336;SDS011;11840;45.414;12.372;2023-05-29T06:43:43;8.65;;;4.85;;
23336;SDS011;11840;45.414;12.372;2023-05-29T06:46:08;6.28;;;4.45;;
23336;SDS011;11840;45.414;12.372;2023-05-29T06:48:35;7.40;;;4.80;;
23336;SDS011;11840;45.414;12.372;2023-05-29T06:51:01;9.55;;;4.72;;
23336;SDS011;11840;45.414;12.372;2023-05-29T06:53:38;10.63;;;5.13;;
23336;SDS011;11840;45.414;12.372;2023-05-29T06:56:05;9.65;;;4.75;;
23336;SDS011;11840;45.414;12.372;2023-05-29T06:58:32;7.47;;;4.25;;
23336;SDS011;11840;45.414;12.372;2023-05-29T07:00:58;7.75;;;4.43;;
23336;SDS011;11840;45.414;12.372;2023-05-29T07:03:31;12.05;;;5.05;;
23336;SDS011;11840;45.414;12.372;2023-05-29T07:05:57;9.13;;;5.07;;
23336;SDS011;11840;45.414;12.372;2023-05-29T07:08:23;10.57;;;5.25;;
23336;SDS011;11840;45.414;12.372;2023-05-29T07:10:50;10.27;;;5.30;;
23336;SDS011;11840;45.414;12.372;2023-05-29T07:13:19;13.07;;;5.05;;
23336;SDS011;11840;45.414;12.372;2023-05-29T07:15:44;9.73;;;5.30;;
23336;SDS011;11840;45.414;12.372;2023-05-29T07:18:11;7.07;;;5.03;;
23336;SDS011;11840;45.414;12.372;2023-05-29T07:20:37;10.23;;;5.38;;
23336;SDS011;11840;45.414;12.372;2023-05-29T07:23:03;11.13;;;5.35;;
23336;SDS011;11840;45.414;12.372;2023-05-29T07:25:29;8.23;;;5.28;;
23336;SDS011;11840;45.414;12.372;2023-05-29T07:27:54;14.43;;;5.30;;
23336;SDS011;11840;45.414;12.372;2023-05-29T07:30:20;12.80;;;5.30;;
23336;SDS011;11840;45.414;12.372;2023-05-29T07:32:47;18.25;;;5.60;;
23336;SDS011;11840;45.414;12.372;2023-05-29T07:35:13;16.65;;;4.90;;
23336;SDS011;11840;45.414;12.372;2023-05-29T07:37:38;10.75;;;5.13;;
23336;SDS011;11840;45.414;12.372;2023-05-29T07:40:04;10.88;;;5.40;;
23336;SDS011;11840;45.414;12.372;2023-05-29T07:42:51;13.38;;;5.07;;
23336;SDS011;11840;45.414;12.372;2023-05-29T07:45:17;11.48;;;5.15;;
23336;SDS011;11840;45.414;12.372;2023-05-29T07:47:43;16.35;;;5.70;;
23336;SDS011;11840;45.414;12.372;2023-05-29T07:50:09;17.35;;;5.28;;
23336;SDS011;11840;45.414;12.372;2023-05-29T07:52:35;18.38;;;5.78;;
23336;SDS011;11840;45.414;12.372;2023-05-29T07:55:01;16.52;;;5.13;;
23336;SDS011;11840;45.414;12.372;2023-05-29T07:57:27;12.57;;;4.93;;
23336;SDS011;11840;45.414;12.372;2023-05-29T07:59:55;14.98;;;6.40;;
23336;SDS011;11840;45.414;12.372;2023-05-29T08:02:21;22.65;;;6.05;;
23336;SDS011;11840;45.414;12.372;2023-05-29T08:05:07;17.55;;;5.50;;
23336;SDS011;11840;45.414;12.372;2023-05-29T08:07:34;34.85;;;6.97;;
23336;SDS011;11840;45.414;12.372;2023-05-29T08:09:59;29.85;;;7.00;;
23336;SDS011;11840;45.414;12.372;2023-05-29T08:12:25;24.55;;;6.18;;
23336;SDS011;11840;45.414;12.372;2023-05-29T08:14:53;38.47;;;8.07;;
23336;SDS011;11840;45.414;12.372;2023-05-29T08:17:19;31.90;;;7.13;;
23336;SDS011;11840;45.414;12.372;2023-05-29T08:19:45;45.33;;;7.60;;
23336;SDS011;11840;45.414;12.372;2023-05-29T08:22:12;31.63;;;6.47;;
23336;SDS011;11840;45.414;12.372;2023-05-29T08:24:38;27.00;;;6.00;;
23336;SDS011;11840;45.414;12.372;2023-05-29T08:27:05;51.92;;;8.85;;
23336;SDS011;11840;45.414;12.372;2023-05-29T08:29:31;48.65;;;9.15;;
23336;SDS011;11840;45.414;12.372;2023-05-29T08:31:57;64.82;;;9.85;;
23336;SDS011;11840;45.414;12.372;2023-05-29T08:34:24;61.10;;;9.73;;
23336;SDS011;11840;45.414;12.372;2023-05-29T08:36:50;67.45;;;9.75;;
23336;SDS011;11840;45.414;12.372;2023-05-29T08:39:16;76.43;;;10.07;;
23336;SDS011;11840;45.414;12.372;2023-05-29T08:41:52;39.25;;;8.40;;
23336;SDS011;11840;45.414;12.372;2023-05-29T08:44:21;23.88;;;6.43;;
23336;SDS011;11840;45.414;12.372;2023-05-29T08:46:57;31.10;;;6.28;;
23336;SDS011;11840;45.414;12.372;2023-05-29T08:49:25;62.17;;;9.27;;
23336;SDS011;11840;45.414;12.372;2023-05-29T08:51:57;54.38;;;8.35;;
23336;SDS011;11840;45.414;12.372;2023-05-29T08:54:25;51.17;;;7.85;;
23336;SDS011;11840;45.414;12.372;2023-05-29T08:56:51;36.70;;;6.80;;
23336;SDS011;11840;45.414;12.372;2023-05-29T08:59:17;18.55;;;5.78;;
23336;SDS011;11840;45.414;12.372;2023-05-29T09:01:43;17.88;;;6.45;;
23336;SDS011;11840;45.414;12.372;2023-05-29T09:04:09;23.42;;;6.47;;
23336;SDS011;11840;45.414;12.372;2023-05-29T09:06:36;24.95;;;7.03;;
23336;SDS011;11840;45.414;12.372;2023-05-29T09:09:01;20.17;;;5.90;;
23336;SDS011;11840;45.414;12.372;2023-05-29T09:11:28;25.58;;;6.07;;
23336;SDS011;11840;45.414;12.372;2023-05-29T09:13:54;18.25;;;5.85;;
23336;SDS011;11840;45.414;12.372;2023-05-29T09:16:20;27.30;;;6.78;;
23336;SDS011;11840;45.414;12.372;2023-05-29T09:18:47;22.42;;;6.72;;
23336;SDS011;11840;45.414;12.372;2023-05-29T09:21:25;12.40;;;5.25;;
23336;SDS011;11840;45.414;12.372;2023-05-29T09:23:51;14.63;;;5.45;;
23336;SDS011;11840;45.414;12.372;2023-05-29T09:26:18;16.48;;;5.35;;
23336;SDS011;11840;45.414;12.372;2023-05-29T09:28:46;13.25;;;5.63;;
23336;SDS011;11840;45.414;12.372;2023-05-29T09:31:15;16.63;;;5.88;;
23336;SDS011;11840;45.414;12.372;2023-05-29T09:33:47;19.13;;;5.80;;
23336;SDS011;11840;45.414;12.372;2023-05-29T09:36:20;11.38;;;5.30;;
23336;SDS011;11840;45.414;12.372;2023-05-29T09:38:47;12.50;;;5.57;;
23336;SDS011;11840;45.414;12.372;2023-05-29T09:41:13;8.70;;;5.57;;
23336;SDS011;11840;45.414;12.372;2023-05-29T09:43:39;10.43;;;5.38;;
23336;SDS011;11840;45.414;12.372;2023-05-29T09:46:06;12.75;;;6.70;;
23336;SDS011;11840;45.414;12.372;2023-05-29T09:48:31;15.15;;;8.80;;
23336;SDS011;11840;45.414;12.372;2023-05-29T09:50:58;17.02;;;11.63;;
23336;SDS011;11840;45.414;12.372;2023-05-29T09:53:27;10.63;;;5.15;;
23336;SDS011;11840;45.414;12.372;2023-05-29T09:55:54;9.52;;;5.60;;
23336;SDS011;11840;45.414;12.372;2023-05-29T09:58:21;8.70;;;5.53;;
23336;SDS011;11840;45.414;12.372;2023-05-29T10:00:47;6.90;;;5.40;;
23336;SDS011;11840;45.414;12.372;2023-05-29T10:03:14;11.57;;;5.75;;
23336;SDS011;11840;45.414;12.372;2023-05-29T10:05:40;10.95;;;5.32;;
23336;SDS011;11840;45.414;12.372;2023-05-29T10:08:08;8.82;;;5.25;;
23336;SDS011;11840;45.414;12.372;2023-05-29T10:10:34;10.18;;;6.10;;
23336;SDS011;11840;45.414;12.372;2023-05-29T10:13:02;9.38;;;5.97;;
23336;SDS011;11840;45.414;12.372;2023-05-29T10:15:29;10.77;;;6.32;;
23336;SDS011;11840;45.414;12.372;2023-05-29T10:17:57;9.63;;;5.85;;
23336;SDS011;11840;45.414;12.372;2023-05-29T10:20:25;8.68;;;5.15;;
23336;SDS011;11840;45.414;12.372;2023-05-29T10:22:52;9.20;;;5.00;;
23336;SDS011;11840;45.414;12.372;2023-05-29T10:25:20;13.18;;;8.50;;
23336;SDS011;11840;45.414;12.372;2023-05-29T10:27:49;10.18;;;5.13;;
23336;SDS011;11840;45.414;12.372;2023-05-29T10:30:19;9.68;;;5.07;;
23336;SDS011;11840;45.414;12.372;2023-05-29T10:35:44;9.13;;;6.15;;
23336;SDS011;11840;45.414;12.372;2023-05-29T10:38:14;11.30;;;7.45;;
23336;SDS011;11840;45.414;12.372;2023-05-29T10:40:42;12.00;;;7.20;;
23336;SDS011;11840;45.414;12.372;2023-05-29T10:43:08;8.40;;;5.80;;
23336;SDS011;11840;45.414;12.372;2023-05-29T10:50:37;8.13;;;5.10;;
23336;SDS011;11840;45.414;12.372;2023-05-29T10:53:03;11.13;;;5.97;;
23336;SDS011;11840;45.414;12.372;2023-05-29T10:55:35;9.68;;;5.13;;
23336;SDS011;11840;45.414;12.372;2023-05-29T10:58:04;12.23;;;7.85;;
23336;SDS011;11840;45.414;12.372;2023-05-29T11:00:31;14.43;;;9.52;;
23336;SDS011;11840;45.414;12.372;2023-05-29T11:02:57;18.38;;;7.20;;
23336;SDS011;11840;45.414;12.372;2023-05-29T11:05:27;12.02;;;7.57;;
23336;SDS011;11840;45.414;12.372;2023-05-29T11:08:00;11.63;;;7.15;;
23336;SDS011;11840;45.414;12.372;2023-05-29T11:16:09;7.75;;;5.43;;
23336;SDS011;11840;45.414;12.372;2023-05-29T11:18:40;9.63;;;5.25;;
23336;SDS011;11840;45.414;12.372;2023-05-29T11:21:05;11.80;;;5.38;;
23336;SDS011;11840;45.414;12.372;2023-05-29T11:23:36;9.05;;;5.82;;
23336;SDS011;11840;45.414;12.372;2023-05-29T11:26:05;13.20;;;8.43;;
23336;SDS011;11840;45.414;12.372;2023-05-29T11:28:32;12.27;;;7.65;;
23336;SDS011;11840;45.414;12.372;2023-05-29T11:30:59;11.95;;;5.70;;
23336;SDS011;11840;45.414;12.372;2023-05-29T11:33:28;7.70;;;5.13;;
23336;SDS011;11840;45.414;12.372;2023-05-29T11:35:58;6.95;;;4.95;;
23336;SDS011;11840;45.414;12.372;2023-05-29T11:38:25;10.15;;;5.13;;
23336;SDS011;11840;45.414;12.372;2023-05-29T11:40:53;11.25;;;7.05;;
23336;SDS011;11840;45.414;12.372;2023-05-29T11:43:19;13.60;;;5.65;;
23336;SDS011;11840;45.414;12.372;2023-05-29T11:45:46;9.38;;;5.15;;
23336;SDS011;11840;45.414;12.372;2023-05-29T11:48:11;6.93;;;4.78;;
23336;SDS011;11840;45.414;12.372;2023-05-29T11:50:37;8.82;;;5.82;;
23336;SDS011;11840;45.414;12.372;2023-05-29T11:53:05;9.50;;;6.20;;
23336;SDS011;11840;45.414;12.372;2023-05-29T11:55:31;11.43;;;6.07;;
23336;SDS011;11840;45.414;12.372;2023-05-29T11:57:57;11.55;;;9.07;;
23336;SDS011;11840;45.414;12.372;2023-05-29T12:00:23;9.23;;;5.03;;
23336;SDS011;11840;45.414;12.372;2023-05-29T12:02:49;8.93;;;5.78;;
23336;SDS011;11840;45.414;12.372;2023-05-29T12:05:16;10.00;;;6.95;;
23336;SDS011;11840;45.414;12.372;2023-05-29T12:08:01;11.15;;;7.53;;
23336;SDS011;11840;45.414;12.372;2023-05-29T12:12:54;16.10;;;6.95;;
23336;SDS011;11840;45.414;12.372;2023-05-29T12:15:20;8.75;;;5.78;;
23336;SDS011;11840;45.414;12.372;2023-05-29T12:17:50;7.85;;;5.28;;
23336;SDS011;11840;45.414;12.372;2023-05-29T12:20:17;7.72;;;5.30;;
23336;SDS011;11840;45.414;12.372;2023-05-29T12:22:43;7.10;;;4.80;;
23336;SDS011;11840;45.414;12.372;2023-05-29T12:25:12;8.95;;;5.25;;
23336;SDS011;11840;45.414;12.372;2023-05-29T12:27:38;8.57;;;5.32;;
23336;SDS011;11840;45.414;12.372;2023-05-29T12:30:11;9.70;;;4.88;;
23336;SDS011;11840;45.414;12.372;2023-05-29T12:32:41;10.25;;;5.07;;
23336;SDS011;11840;45.414;12.372;2023-05-29T12:35:16;11.20;;;5.47;;
23336;SDS011;11840;45.414;12.372;2023-05-29T12:37:43;9.45;;;6.70;;
23336;SDS011;11840;45.414;12.372;2023-05-29T12:40:19;9.90;;;5.78;;
23336;SDS011;11840;45.414;12.372;2023-05-29T12:42:53;7.90;;;5.28;;
23336;SDS011;11840;45.414;12.372;2023-05-29T12:45:19;12.35;;;5.40;;
23336;SDS011;11840;45.414;12.372;2023-05-29T12:47:55;12.00;;;4.80;;
23336;SDS011;11840;45.414;12.372;2023-05-29T12:50:28;8.93;;;4.75;;
23336;SDS011;11840;45.414;12.372;2023-05-29T12:52:57;11.65;;;5.03;;
23336;SDS011;11840;45.414;12.372;2023-05-29T12:55:25;10.68;;;4.38;;
23336;SDS011;11840;45.414;12.372;2023-05-29T12:57:51;7.80;;;4.40;;
23336;SDS011;11840;45.414;12.372;2023-05-29T13:00:17;7.93;;;4.50;;
23336;SDS011;11840;45.414;12.372;2023-05-29T13:02:44;13.95;;;5.07;;
23336;SDS011;11840;45.414;12.372;2023-05-29T13:05:10;7.95;;;4.68;;
23336;SDS011;11840;45.414;12.372;2023-05-29T13:07:37;7.03;;;4.45;;
23336;SDS011;11840;45.414;12.372;2023-05-29T13:10:03;9.82;;;4.85;;
23336;SDS011;11840;45.414;12.372;2023-05-29T13:12:29;8.25;;;4.97;;
23336;SDS011;11840;45.414;12.372;2023-05-29T13:14:55;9.43;;;4.75;;
23336;SDS011;11840;45.414;12.372;2023-05-29T13:17:23;14.00;;;5.25;;
23336;SDS011;11840;45.414;12.372;2023-05-29T13:19:49;6.57;;;4.47;;
23336;SDS011;11840;45.414;12.372;2023-05-29T13:22:15;11.85;;;5.15;;
23336;SDS011;11840;45.414;12.372;2023-05-29T13:24:41;7.90;;;5.35;;
23336;SDS011;11840;45.414;12.372;2023-05-29T13:27:07;8.13;;;5.03;;
23336;SDS011;11840;45.414;12.372;2023-05-29T13:29:33;6.45;;;4.90;;
23336;SDS011;11840;45.414;12.372;2023-05-29T13:32:00;11.50;;;5.05;;
23336;SDS011;11840;45.414;12.372;2023-05-29T13:34:26;7.20;;;4.57;;
23336;SDS011;11840;45.414;12.372;2023-05-29T13:36:54;8.77;;;4.82;;
23336;SDS011;11840;45.414;12.372;2023-05-29T13:39:20;7.88;;;5.00;;
23336;SDS011;11840;45.414;12.372;2023-05-29T13:41:46;8.15;;;4.85;;
23336;SDS011;11840;45.414;12.372;2023-05-29T13:44:13;6.18;;;4.35;;
23336;SDS011;11840;45.414;12.372;2023-05-29T13:46:39;7.57;;;4.63;;
23336;SDS011;11840;45.414;12.372;2023-05-29T13:49:05;9.20;;;4.72;;
23336;SDS011;11840;45.414;12.372;2023-05-29T13:51:33;10.10;;;5.00;;
23336;SDS011;11840;45.414;12.372;2023-05-29T13:53:58;6.22;;;4.35;;
23336;SDS011;11840;45.414;12.372;2023-05-29T13:56:24;8.65;;;4.82;;
23336;SDS011;11840;45.414;12.372;2023-05-29T13:58:52;6.70;;;4.53;;
23336;SDS011;11840;45.414;12.372;2023-05-29T14:01:18;7.82;;;4.60;;
23336;SDS011;11840;45.414;12.372;2023-05-29T14:03:45;7.75;;;4.90;;
23336;SDS011;11840;45.414;12.372;2023-05-29T14:06:11;7.13;;;4.28;;
23336;SDS011;11840;45.414;12.372;2023-05-29T14:08:37;5.85;;;3.78;;
23336;SDS011;11840;45.414;12.372;2023-05-29T14:11:03;7.10;;;4.03;;
23336;SDS011;11840;45.414;12.372;2023-05-29T14:13:29;7.18;;;4.47;;
23336;SDS011;11840;45.414;12.372;2023-05-29T14:15:55;7.47;;;4.63;;
23336;SDS011;11840;45.414;12.372;2023-05-29T14:18:22;6.90;;;4.25;;
23336;SDS011;11840;45.414;12.372;2023-05-29T14:20:48;6.55;;;4.38;;
23336;SDS011;11840;45.414;12.372;2023-05-29T14:23:16;7.38;;;4.28;;
23336;SDS011;11840;45.414;12.372;2023-05-29T14:25:43;6.80;;;4.30;;
23336;SDS011;11840;45.414;12.372;2023-05-29T14:28:09;6.95;;;4.38;;
23336;SDS011;11840;45.414;12.372;2023-05-29T14:30:35;7.15;;;4.35;;
23336;SDS011;11840;45.414;12.372;2023-05-29T14:33:01;7.00;;;4.38;;
23336;SDS011;11840;45.414;12.372;2023-05-29T14:35:27;9.05;;;4.63;;
23336;SDS011;11840;45.414;12.372;2023-05-29T14:37:53;6.88;;;4.25;;
23336;SDS011;11840;45.414;12.372;2023-05-29T14:40:19;8.95;;;4.72;;
23336;SDS011;11840;45.414;12.372;2023-05-29T14:42:45;7.20;;;4.50;;
23336;SDS011;11840;45.414;12.372;2023-05-29T14:45:11;6.03;;;4.43;;
23336;SDS011;11840;45.414;12.372;2023-05-29T14:47:37;6.43;;;4.10;;
23336;SDS011;11840;45.414;12.372;2023-05-29T14:50:03;7.25;;;4.28;;
23336;SDS011;11840;45.414;12.372;2023-05-29T14:52:29;9.50;;;4.72;;
23336;SDS011;11840;45.414;12.372;2023-05-29T14:54:55;9.40;;;4.93;;
23336;SDS011;11840;45.414;12.372;2023-05-29T14:57:21;8.07;;;4.90;;
23336;SDS011;11840;45.414;12.372;2023-05-29T14:59:47;6.47;;;4.30;;
23336;SDS011;11840;45.414;12.372;2023-05-29T15:02:13;8.45;;;4.72;;
23336;SDS011;11840;45.414;12.372;2023-05-29T15:04:40;8.80;;;4.60;;
23336;SDS011;11840;45.414;12.372;2023-05-29T15:07:06;9.55;;;5.18;;
23336;SDS011;11840;45.414;12.372;2023-05-29T15:09:32;9.85;;;4.22;;
23336;SDS011;11840;45.414;12.372;2023-05-29T15:11:58;6.47;;;4.43;;
23336;SDS011;11840;45.414;12.372;2023-05-29T15:14:23;7.05;;;4.10;;
23336;SDS011;11840;45.414;12.372;2023-05-29T15:16:50;8.35;;;5.22;;
23336;SDS011;11840;45.414;12.372;2023-05-29T15:19:16;10.95;;;5.50;;
23336;SDS011;11840;45.414;12.372;2023-05-29T15:21:42;8.75;;;4.45;;
23336;SDS011;11840;45.414;12.372;2023-05-29T15:24:08;7.65;;;4.85;;
23336;SDS011;11840;45.414;12.372;2023-05-29T15:26:34;8.48;;;4.63;;
23336;SDS011;11840;45.414;12.372;2023-05-29T15:29:02;6.43;;;4.40;;
23336;SDS011;11840;45.414;12.372;2023-05-29T15:31:28;7.65;;;4.38;;
23336;SDS011;11840;45.414;12.372;2023-05-29T15:33:53;5.60;;;4.05;;
23336;SDS011;11840;45.414;12.372;2023-05-29T15:36:19;7.28;;;4.35;;
23336;SDS011;11840;45.414;12.372;2023-05-29T15:38:46;7.63;;;4.30;;
23336;SDS011;11840;45.414;12.372;2023-05-29T15:41:12;7.05;;;4.22;;
23336;SDS011;11840;45.414;12.372;2023-05-29T15:43:37;6.40;;;4.47;;
23336;SDS011;11840;45.414;12.372;2023-05-29T15:46:03;9.10;;;4.35;;
23336;SDS011;11840;45.414;12.372;2023-05-29T15:48:29;7.13;;;4.00;;
23336;SDS011;11840;45.414;12.372;2023-05-29T15:50:55;7.45;;;4.13;;
23336;SDS011;11840;45.414;12.372;2023-05-29T15:53:21;6.15;;;4.38;;
23336;SDS011;11840;45.414;12.372;2023-05-29T15:55:47;6.57;;;3.92;;
23336;SDS011;11840;45.414;12.372;2023-05-29T15:58:13;8.13;;;4.13;;
23336;SDS011;11840;45.414;12.372;2023-05-29T16:00:39;6.55;;;4.47;;
23336;SDS011;11840;45.414;12.372;2023-05-29T16:03:05;8.02;;;3.88;;
23336;SDS011;11840;45.414;12.372;2023-05-29T16:05:31;11.05;;;4.72;;
23336;SDS011;11840;45.414;12.372;2023-05-29T16:07:57;9.63;;;4.65;;
23336;SDS011;11840;45.414;12.372;2023-05-29T16:10:23;5.35;;;4.18;;
23336;SDS011;11840;45.414;12.372;2023-05-29T16:12:50;7.60;;;4.63;;
23336;SDS011;11840;45.414;12.372;2023-05-29T16:15:16;6.80;;;4.53;;
23336;SDS011;11840;45.414;12.372;2023-05-29T16:17:42;6.35;;;4.50;;
23336;SDS011;11840;45.414;12.372;2023-05-29T16:20:08;6.90;;;4.88;;
23336;SDS011;11840;45.414;12.372;2023-05-29T16:22:34;7.90;;;4.32;;
23336;SDS011;11840;45.414;12.372;2023-05-29T16:25:00;7.85;;;4.70;;
23336;SDS011;11840;45.414;12.372;2023-05-29T16:27:26;8.52;;;4.30;;
23336;SDS011;11840;45.414;12.372;2023-05-29T16:29:52;7.28;;;4.63;;
23336;SDS011;11840;45.414;12.372;2023-05-29T16:32:19;7.25;;;4.25;;
23336;SDS011;11840;45.414;12.372;2023-05-29T16:34:45;11.07;;;4.32;;
23336;SDS011;11840;45.414;12.372;2023-05-29T16:37:11;6.50;;;4.30;;
23336;SDS011;11840;45.414;12.372;2023-05-29T16:39:37;9.30;;;4.80;;
23336;SDS011;11840;45.414;12.372;2023-05-29T16:42:03;7.72;;;4.70;;
23336;SDS011;11840;45.414;12.372;2023-05-29T16:44:28;6.30;;;4.32;;
23336;SDS011;11840;45.414;12.372;2023-05-29T16:46:55;8.35;;;4.45;;
23336;SDS011;11840;45.414;12.372;2023-05-29T16:49:21;7.57;;;4.68;;
23336;SDS011;11840;45.414;12.372;2023-05-29T16:51:48;11.70;;;4.97;;
23336;SDS011;11840;45.414;12.372;2023-05-29T16:54:14;8.07;;;5.03;;
23336;SDS011;11840;45.414;12.372;2023-05-29T16:56:40;8.07;;;4.22;;
23336;SDS011;11840;45.414;12.372;2023-05-29T16:59:06;6.35;;;4.82;;
23336;SDS011;11840;45.414;12.372;2023-05-29T17:01:32;7.32;;;4.50;;
23336;SDS011;11840;45.414;12.372;2023-05-29T17:03:58;7.82;;;4.47;;
23336;SDS011;11840;45.414;12.372;2023-05-29T17:06:23;5.90;;;3.85;;
23336;SDS011;11840;45.414;12.372;2023-05-29T17:08:49;7.63;;;4.30;;
23336;SDS011;11840;45.414;12.372;2023-05-29T17:11:15;6.38;;;4.70;;
23336;SDS011;11840;45.414;12.372;2023-05-29T17:13:41;6.00;;;4.22;;
23336;SDS011;11840;45.414;12.372;2023-05-29T17:16:07;8.35;;;4.05;;
23336;SDS011;11840;45.414;12.372;2023-05-29T17:18:33;6.63;;;4.25;;
23336;SDS011;11840;45.414;12.372;2023-05-29T17:20:59;8.90;;;4.97;;
23336;SDS011;11840;45.414;12.372;2023-05-29T17:23:25;8.60;;;4.60;;
23336;SDS011;11840;45.414;12.372;2023-05-29T17:25:51;7.93;;;4.47;;
23336;SDS011;11840;45.414;12.372;2023-05-29T17:28:17;6.88;;;4.30;;
23336;SDS011;11840;45.414;12.372;2023-05-29T17:30:43;9.00;;;4.70;;
23336;SDS011;11840;45.414;12.372;2023-05-29T17:33:09;9.40;;;4.85;;
23336;SDS011;11840;45.414;12.372;2023-05-29T17:35:35;5.88;;;4.38;;
23336;SDS011;11840;45.414;12.372;2023-05-29T17:38:00;7.22;;;4.70;;
23336;SDS011;11840;45.414;12.372;2023-05-29T17:40:26;9.63;;;4.40;;
23336;SDS011;11840;45.414;12.372;2023-05-29T17:42:52;7.07;;;4.60;;
23336;SDS011;11840;45.414;12.372;2023-05-29T17:45:18;7.45;;;4.50;;
23336;SDS011;11840;45.414;12.372;2023-05-29T17:47:44;9.27;;;4.47;;
23336;SDS011;11840;45.414;12.372;2023-05-29T17:50:10;6.18;;;4.47;;
23336;SDS011;11840;45.414;12.372;2023-05-29T17:52:36;7.05;;;4.47;;
23336;SDS011;11840;45.414;12.372;2023-05-29T17:55:02;5.60;;;4.07;;
23336;SDS011;11840;45.414;12.372;2023-05-29T17:57:28;6.00;;;4.20;;
23336;SDS011;11840;45.414;12.372;2023-05-29T17:59:54;10.82;;;5.25;;
23336;SDS011;11840;45.414;12.372;2023-05-29T18:02:19;10.55;;;5.47;;
23336;SDS011;11840;45.414;12.372;2023-05-29T18:04:46;8.60;;;4.60;;
23336;SDS011;11840;45.414;12.372;2023-05-29T18:07:14;8.68;;;4.85;;
23336;SDS011;11840;45.414;12.372;2023-05-29T18:09:42;10.57;;;5.20;;
23336;SDS011;11840;45.414;12.372;2023-05-29T18:12:08;9.55;;;7.10;;
23336;SDS011;11840;45.414;12.372;2023-05-29T18:14:34;9.68;;;5.55;;
23336;SDS011;11840;45.414;12.372;2023-05-29T18:17:00;12.10;;;5.43;;
23336;SDS011;11840;45.414;12.372;2023-05-29T18:19:26;9.13;;;4.90;;
23336;SDS011;11840;45.414;12.372;2023-05-29T18:21:52;8.93;;;4.70;;
23336;SDS011;11840;45.414;12.372;2023-05-29T18:24:18;7.32;;;4.90;;
23336;SDS011;11840;45.414;12.372;2023-05-29T18:26:44;9.02;;;4.30;;
23336;SDS011;11840;45.414;12.372;2023-05-29T18:29:09;8.32;;;4.82;;
23336;SDS011;11840;45.414;12.372;2023-05-29T18:31:36;31.67;;;24.10;;
23336;SDS011;11840;45.414;12.372;2023-05-29T18:34:02;23.20;;;15.48;;
23336;SDS011;11840;45.414;12.372;2023-05-29T18:36:29;11.07;;;6.28;;
23336;SDS011;11840;45.414;12.372;2023-05-29T18:38:55;9.00;;;5.30;;
23336;SDS011;11840;45.414;12.372;2023-05-29T18:41:21;9.55;;;4.80;;
23336;SDS011;11840;45.414;12.372;2023-05-29T18:45:36;6.10;;;4.63;;
23336;SDS011;11840;45.414;12.372;2023-05-29T18:48:02;8.25;;;4.80;;
23336;SDS011;11840;45.414;12.372;2023-05-29T18:50:28;6.45;;;4.95;;
23336;SDS011;11840;45.414;12.372;2023-05-29T18:52:54;7.28;;;4.68;;
23336;SDS011;11840;45.414;12.372;2023-05-29T18:55:20;8.10;;;4.50;;
23336;SDS011;11840;45.414;12.372;2023-05-29T18:57:47;8.75;;;5.13;;
23336;SDS011;11840;45.414;12.372;2023-05-29T19:00:12;8.95;;;6.28;;
23336;SDS011;11840;45.414;12.372;2023-05-29T19:02:38;8.98;;;5.57;;
23336;SDS011;11840;45.414;12.372;2023-05-29T19:05:04;8.77;;;5.20;;
23336;SDS011;11840;45.414;12.372;2023-05-29T19:07:30;8.88;;;5.93;;
23336;SDS011;11840;45.414;12.372;2023-05-29T19:09:57;7.00;;;4.55;;
23336;SDS011;11840;45.414;12.372;2023-05-29T19:12:23;7.63;;;5.15;;
23336;SDS011;11840;45.414;12.372;2023-05-29T19:14:48;8.70;;;5.38;;
23336;SDS011;11840;45.414;12.372;2023-05-29T19:17:14;8.20;;;5.28;;
23336;SDS011;11840;45.414;12.372;2023-05-29T19:19:40;7.45;;;4.75;;
23336;SDS011;11840;45.414;12.372;2023-05-29T19:22:06;8.57;;;5.32;;
23336;SDS011;11840;45.414;12.372;2023-05-29T19:24:32;6.90;;;5.03;;
23336;SDS011;11840;45.414;12.372;2023-05-29T19:26:59;8.68;;;5.35;;
23336;SDS011;11840;45.414;12.372;2023-05-29T19:29:25;7.13;;;5.15;;
23336;SDS011;11840;45.414;12.372;2023-05-29T19:31:51;7.47;;;5.35;;
23336;SDS011;11840;45.414;12.372;2023-05-29T19:34:17;8.00;;;5.63;;
23336;SDS011;11840;45.414;12.372;2023-05-29T19:36:43;8.30;;;5.25;;
23336;SDS011;11840;45.414;12.372;2023-05-29T19:39:10;10.07;;;5.40;;
23336;SDS011;11840;45.414;12.372;2023-05-29T19:41:36;7.30;;;5.22;;
23336;SDS011;11840;45.414;12.372;2023-05-29T19:44:03;9.15;;;5.68;;
23336;SDS011;11840;45.414;12.372;2023-05-29T19:46:31;8.02;;;5.55;;
23336;SDS011;11840;45.414;12.372;2023-05-29T19:48:57;8.38;;;5.43;;
23336;SDS011;11840;45.414;12.372;2023-05-29T19:51:23;10.65;;;5.68;;
23336;SDS011;11840;45.414;12.372;2023-05-29T19:53:48;9.35;;;5.93;;
23336;SDS011;11840;45.414;12.372;2023-05-29T19:56:14;7.72;;;5.07;;
23336;SDS011;11840;45.414;12.372;2023-05-29T19:58:40;9.60;;;5.60;;
23336;SDS011;11840;45.414;12.372;2023-05-29T20:01:06;8.27;;;5.50;;
23336;SDS011;11840;45.414;12.372;2023-05-29T20:03:32;7.97;;;5.57;;
23336;SDS011;11840;45.414;12.372;2023-05-29T20:06:00;8.50;;;5.35;;